Manhattan — WDH4861 — position and weather

sailwx.info

Track history (hours):
 
Tides and Currents Weather Stations Pressure Air Temp Water Temp Dewpoint Dewpoint Depression Visibility Wind Speed Wind Dir Waves Ship Positions

Manhattan

Owner: NY WaterTours/GO New York Tours, New York, NY. More information available from US FCC via Universal Licensing System and Coast Guard Vessel Documentation Center.

Last reported at 2018-Jul-22 22:37 UTC. Time now 2018-Jul-23 06:11 UTC.
Position N 40°41' W 074°01'.

Length 29 m; draft 0.2 m.

Type: Ship. MMSI: 367622140.

Date/timePositionNaut miles runAvg speedWind from/ knotsBaromVisibWave heightAir tempDewpointWater temp
2018-Jul-22 22:37N 40°41' W 074°01'0 1.4
2018-Jul-22 22:30N 40°41' W 074°01'1 2.5
2018-Jul-22 22:00N 40°42' W 074°02'1 2.0
2018-Jul-22 21:30N 40°43' W 074°01'1 1.8
2018-Jul-22 21:00N 40°42' W 074°01'1 2.0
2018-Jul-22 20:29N 40°43' W 074°02'1 1.9
2018-Jul-22 19:58N 40°43' W 074°01'2 4.5
2018-Jul-22 19:31N 40°41' W 074°03'2 4.0
2018-Jul-22 19:00N 40°43' W 074°01'1 2.4
2018-Jul-22 18:30N 40°42' W 074°01'2 3.3
2018-Jul-22 18:00N 40°43' W 074°02'1 2.0
2018-Jul-22 17:30N 40°43' W 074°01'1 2.5
2018-Jul-22 16:59N 40°42' W 073°60'1 3.0
2018-Jul-22 16:30N 40°42' W 074°01'1 2.5
2018-Jul-22 16:00N 40°43' W 074°01'2 1.8
2018-Jul-22 15:00N 40°41' W 074°01'0 0.0
2018-Jul-21 23:24N 40°41' W 074°01'2 5.1
2018-Jul-21 23:00N 40°43' W 074°01'0 0.3
2018-Jul-21 22:30N 40°43' W 074°01'2 3.1
2018-Jul-21 22:00N 40°41' W 074°02'2 3.7
2018-Jul-21 21:30N 40°43' W 074°01'0 0.2
2018-Jul-21 21:00N 40°43' W 074°01'2 3.5
2018-Jul-21 20:30N 40°45' W 074°01'3 6.0
2018-Jul-21 20:00N 40°42' W 074°02'1 1.9
2018-Jul-21 19:30N 40°43' W 074°02'1 1.3
2018-Jul-21 19:00N 40°43' W 074°01'2 4.1
2018-Jul-21 18:30N 40°41' W 074°03'2 4.1
2018-Jul-21 18:00N 40°43' W 074°01'0 0.4
2018-Jul-21 17:30N 40°43' W 074°01'1 1.8
2018-Jul-21 17:00N 40°42' W 074°00'2 3.5
2018-Jul-21 16:30N 40°41' W 074°02'2 3.9
2018-Jul-21 16:00N 40°43' W 074°01'0 0.1
2018-Jul-21 15:30N 40°43' W 074°01'0 0.4
2018-Jul-21 15:00N 40°43' W 074°01'1 1.5
2018-Jul-21 14:30N 40°43' W 074°02'0 0.8
2018-Jul-21 14:00N 40°43' W 074°02'2 4.5
2018-Jul-21 13:30N 40°41' W 074°01'0 0.0
2018-Jul-20 20:57N 40°41' W 074°01'1 2.2
2018-Jul-20 20:30N 40°42' W 074°01'1 2.2
2018-Jul-20 20:00N 40°43' W 074°01'0 0.7
2018-Jul-20 19:31N 40°43' W 074°02'0 0.7
2018-Jul-20 19:01N 40°43' W 074°01'2 4.1
2018-Jul-20 18:31N 40°41' W 074°03'2 4.1
2018-Jul-20 18:01N 40°43' W 074°01'0 0.3
2018-Jul-20 17:30N 40°43' W 074°01'1 2.3
2018-Jul-20 17:00N 40°42' W 074°00'2 4.0
2018-Jul-20 16:31N 40°41' W 074°03'2 4.1
2018-Jul-20 16:01N 40°43' W 074°01'0 0.8
2018-Jul-20 15:30N 40°43' W 074°01'2 3.5
2018-Jul-20 15:01N 40°41' W 074°01'0 0.0
2018-Jul-19 21:30N 40°41' W 074°01'2 4.4
2018-Jul-19 21:00N 40°43' W 074°02'0 0.0
2018-Jul-19 20:30N 40°43' W 074°02'1 2.2
2018-Jul-19 20:00N 40°43' W 074°01'1 2.8
2018-Jul-19 19:30N 40°42' W 074°02'1 2.8
2018-Jul-19 19:01N 40°43' W 074°01'1 2.0
2018-Jul-19 18:31N 40°42' W 074°01'1 2.6
2018-Jul-19 18:00N 40°43' W 074°02'1 1.9
2018-Jul-19 17:30N 40°43' W 074°01'1 2.2
2018-Jul-19 17:00N 40°42' W 074°01'2 3.5
2018-Jul-19 16:30N 40°41' W 074°03'2 4.1
2018-Jul-19 16:00N 40°43' W 074°01'0 0.0
2018-Jul-19 15:30N 40°43' W 074°01'0 0.8
2018-Jul-19 15:00N 40°43' W 074°01'2 1.7
2018-Jul-19 14:00N 40°41' W 074°01'0 0.0
2018-Jul-18 20:43N 40°41' W 074°01'0 0.6
2018-Jul-18 20:30N 40°41' W 074°01'2 3.9
2018-Jul-18 20:00N 40°43' W 074°01'1 2.6
2018-Jul-18 19:30N 40°42' W 074°02'1 2.6
2018-Jul-18 19:00N 40°43' W 074°01'1 2.2
2018-Jul-18 18:30N 40°42' W 074°01'1 2.6
2018-Jul-18 18:00N 40°43' W 074°02'1 1.6
2018-Jul-18 17:30N 40°43' W 074°01'1 1.9
2018-Jul-18 17:00N 40°42' W 074°01'1 2.0
2018-Jul-18 16:30N 40°41' W 074°02'2 3.6
2018-Jul-18 16:00N 40°43' W 074°01'0 0.1
2018-Jul-18 15:30N 40°43' W 074°01'2 4.1
2018-Jul-18 15:00N 40°41' W 074°01'0 0.0
2018-Jul-18 14:30N 40°41' W 074°01'0 0.0
2018-Jul-17 19:49N 40°41' W 074°01'0 0.0
2018-Jul-17 19:30N 40°41' W 074°01'2 4.1
2018-Jul-17 19:00N 40°43' W 074°01'1 2.5
2018-Jul-17 18:30N 40°42' W 074°01'2 3.2
2018-Jul-17 18:00N 40°43' W 074°02'1 1.9
2018-Jul-17 17:30N 40°43' W 074°01'1 2.0
2018-Jul-17 17:00N 40°42' W 074°00'2 3.5
2018-Jul-17 16:30N 40°41' W 074°03'2 4.0
2018-Jul-17 16:00N 40°43' W 074°01'1 2.2
2018-Jul-17 15:30N 40°43' W 074°02'0 0.1
2018-Jul-17 15:00N 40°43' W 074°02'1 1.0
2018-Jul-17 14:30N 40°43' W 074°02'2 4.1
2018-Jul-17 14:00N 40°41' W 074°01'0 0.0
2018-Jul-16 20:56N 40°41' W 074°01'2 4.0
2018-Jul-16 20:31N 40°42' W 074°01'1 1.3
2018-Jul-16 20:00N 40°42' W 074°02'1 1.5
2018-Jul-16 19:30N 40°43' W 074°02'1 2.0
2018-Jul-16 19:01N 40°43' W 074°01'1 2.4
2018-Jul-16 18:31N 40°42' W 074°01'1 2.6
2018-Jul-16 18:01N 40°43' W 074°03'1 2.3
2018-Jul-16 17:31N 40°43' W 074°01'1 1.9
2018-Jul-16 17:00N 40°42' W 074°01'1 2.9
2018-Jul-16 16:30N 40°41' W 074°03'2 4.0
2018-Jul-16 16:00N 40°43' W 074°01'0 0.2
2018-Jul-16 15:31N 40°43' W 074°01'2 3.9
2018-Jul-16 15:00N 40°41' W 074°01'0 0.0
2018-Jul-15 22:51N 40°41' W 074°01'2 6.0
2018-Jul-15 22:31N 40°43' W 074°01'1 2.4
2018-Jul-15 22:00N 40°42' W 074°01'1 2.4
2018-Jul-15 21:30N 40°43' W 074°01'1 2.0
2018-Jul-15 21:00N 40°42' W 074°01'1 2.6
2018-Jul-15 20:30N 40°43' W 074°02'1 1.7
2018-Jul-15 20:00N 40°43' W 074°01'2 4.0
2018-Jul-15 19:30N 40°41' W 074°03'2 3.9
2018-Jul-15 19:00N 40°43' W 074°01'1 2.2
2018-Jul-15 18:29N 40°42' W 073°60'2 3.8
2018-Jul-15 18:00N 40°43' W 074°02'1 1.9
2018-Jul-15 17:29N 40°43' W 074°01'1 2.3
2018-Jul-15 16:59N 40°42' W 073°60'2 4.8
2018-Jul-15 16:29N 40°41' W 074°03'2 4.1
2018-Jul-15 16:00N 40°43' W 074°01'0 0.0
2018-Jul-15 15:30N 40°43' W 074°01'1 2.0
2018-Jul-15 14:56N 40°42' W 074°00'2 4.1
2018-Jul-15 14:29N 40°43' W 074°02'1 2.3
2018-Jul-15 14:00N 40°43' W 074°01'1 2.0
2018-Jul-15 13:30N 40°43' W 074°02'0 0.2
2018-Jul-15 12:59N 40°43' W 074°02'2 0.2
2018-Jul-14 23:49N 40°41' W 074°01'0 0.0
2018-Jul-14 23:31N 40°41' W 074°01'1 1.1
2018-Jul-14 23:00N 40°41' W 074°01'2 3.1
2018-Jul-14 22:31N 40°43' W 074°01'2 4.1
2018-Jul-14 22:00N 40°41' W 074°03'2 4.1
2018-Jul-14 21:30N 40°43' W 074°01'1 1.1
2018-Jul-14 21:01N 40°42' W 074°01'0 0.9
2018-Jul-14 20:31N 40°43' W 074°02'1 1.4
2018-Jul-14 20:00N 40°43' W 074°01'1 2.7
2018-Jul-14 19:30N 40°42' W 074°02'1 2.7
2018-Jul-14 19:00N 40°43' W 074°01'2 3.3
2018-Jul-14 18:30N 40°41' W 074°02'1 2.8
2018-Jul-14 18:00N 40°43' W 074°02'0 0.8
2018-Jul-14 17:30N 40°43' W 074°01'1 2.1
2018-Jul-14 17:00N 40°42' W 074°00'1 2.8
2018-Jul-14 16:30N 40°42' W 074°02'1 2.3
2018-Jul-14 16:00N 40°43' W 074°01'0 0.0
2018-Jul-14 15:30N 40°43' W 074°01'1 2.3
2018-Jul-14 15:00N 40°42' W 074°01'2 3.5
2018-Jul-14 14:30N 40°43' W 074°03'2 0.1
2018-Jul-13 20:40N 40°41' W 074°01'1 5.3
2018-Jul-13 20:30N 40°42' W 074°01'1 2.0
2018-Jul-13 20:00N 40°43' W 074°01'1 2.0
2018-Jul-13 19:30N 40°43' W 074°03'1 2.4
2018-Jul-13 19:00N 40°43' W 074°01'1 2.7
2018-Jul-13 18:30N 40°42' W 074°02'1 2.3
2018-Jul-13 18:01N 40°43' W 074°03'1 2.2
2018-Jul-13 17:31N 40°43' W 074°01'1 2.0
2018-Jul-13 17:00N 40°42' W 074°00'2 3.8
2018-Jul-13 16:31N 40°41' W 074°03'2 4.1
2018-Jul-13 16:00N 40°43' W 074°01'0 0.0
2018-Jul-13 15:30N 40°43' W 074°01'1 2.1
2018-Jul-13 15:00N 40°42' W 074°00'1 1.1
2018-Jul-13 14:00N 40°43' W 074°01'1 2.2
2018-Jul-13 13:30N 40°43' W 074°02'0 0.1
2018-Jul-13 13:00N 40°43' W 074°02'  
Track history (hours):
 
Tides and Currents Weather Stations Pressure Air Temp Water Temp Dewpoint Dewpoint Depression Visibility Wind Speed Wind Dir Waves Ship Positions

Manhattan

Owner: NY WaterTours/GO New York Tours, New York, NY. More information available from US FCC via Universal Licensing System and Coast Guard Vessel Documentation Center.

Last reported at 2018-Jul-22 22:37 UTC. Time now 2018-Jul-23 06:11 UTC.
Position N 40°41' W 074°01'.

Length 29 m; draft 0.2 m.

Type: Ship. MMSI: 367622140.

Date/timePositionNaut miles runAvg speedWind from/ knotsBaromVisibWave heightAir tempDewpointWater temp
2018-Jul-22 22:37N 40°41' W 074°01'0 1.4
2018-Jul-22 22:30N 40°41' W 074°01'1 2.5
2018-Jul-22 22:00N 40°42' W 074°02'1 2.0
2018-Jul-22 21:30N 40°43' W 074°01'1 1.8
2018-Jul-22 21:00N 40°42' W 074°01'1 2.0
2018-Jul-22 20:29N 40°43' W 074°02'1 1.9
2018-Jul-22 19:58N 40°43' W 074°01'2 4.5
2018-Jul-22 19:31N 40°41' W 074°03'2 4.0
2018-Jul-22 19:00N 40°43' W 074°01'1 2.4
2018-Jul-22 18:30N 40°42' W 074°01'2 3.3
2018-Jul-22 18:00N 40°43' W 074°02'1 2.0
2018-Jul-22 17:30N 40°43' W 074°01'1 2.5
2018-Jul-22 16:59N 40°42' W 073°60'1 3.0
2018-Jul-22 16:30N 40°42' W 074°01'1 2.5
2018-Jul-22 16:00N 40°43' W 074°01'2 1.8
2018-Jul-22 15:00N 40°41' W 074°01'0 0.0
2018-Jul-21 23:24N 40°41' W 074°01'2 5.1
2018-Jul-21 23:00N 40°43' W 074°01'0 0.3
2018-Jul-21 22:30N 40°43' W 074°01'2 3.1
2018-Jul-21 22:00N 40°41' W 074°02'2 3.7
2018-Jul-21 21:30N 40°43' W 074°01'0 0.2
2018-Jul-21 21:00N 40°43' W 074°01'2 3.5
2018-Jul-21 20:30N 40°45' W 074°01'3 6.0
2018-Jul-21 20:00N 40°42' W 074°02'1 1.9
2018-Jul-21 19:30N 40°43' W 074°02'1 1.3
2018-Jul-21 19:00N 40°43' W 074°01'2 4.1
2018-Jul-21 18:30N 40°41' W 074°03'2 4.1
2018-Jul-21 18:00N 40°43' W 074°01'0 0.4
2018-Jul-21 17:30N 40°43' W 074°01'1 1.8
2018-Jul-21 17:00N 40°42' W 074°00'2 3.5
2018-Jul-21 16:30N 40°41' W 074°02'2 3.9
2018-Jul-21 16:00N 40°43' W 074°01'0 0.1
2018-Jul-21 15:30N 40°43' W 074°01'0 0.4
2018-Jul-21 15:00N 40°43' W 074°01'1 1.5
2018-Jul-21 14:30N 40°43' W 074°02'0 0.8
2018-Jul-21 14:00N 40°43' W 074°02'2 4.5
2018-Jul-21 13:30N 40°41' W 074°01'0 0.0
2018-Jul-20 20:57N 40°41' W 074°01'1 2.2
2018-Jul-20 20:30N 40°42' W 074°01'1 2.2
2018-Jul-20 20:00N 40°43' W 074°01'0 0.7
2018-Jul-20 19:31N 40°43' W 074°02'0 0.7
2018-Jul-20 19:01N 40°43' W 074°01'2 4.1
2018-Jul-20 18:31N 40°41' W 074°03'2 4.1
2018-Jul-20 18:01N 40°43' W 074°01'0 0.3
2018-Jul-20 17:30N 40°43' W 074°01'1 2.3
2018-Jul-20 17:00N 40°42' W 074°00'2 4.0
2018-Jul-20 16:31N 40°41' W 074°03'2 4.1
2018-Jul-20 16:01N 40°43' W 074°01'0 0.8
2018-Jul-20 15:30N 40°43' W 074°01'2 3.5
2018-Jul-20 15:01N 40°41' W 074°01'0 0.0
2018-Jul-19 21:30N 40°41' W 074°01'2 4.4
2018-Jul-19 21:00N 40°43' W 074°02'0 0.0
2018-Jul-19 20:30N 40°43' W 074°02'1 2.2
2018-Jul-19 20:00N 40°43' W 074°01'1 2.8
2018-Jul-19 19:30N 40°42' W 074°02'1 2.8
2018-Jul-19 19:01N 40°43' W 074°01'1 2.0
2018-Jul-19 18:31N 40°42' W 074°01'1 2.6
2018-Jul-19 18:00N 40°43' W 074°02'1 1.9
2018-Jul-19 17:30N 40°43' W 074°01'1 2.2
2018-Jul-19 17:00N 40°42' W 074°01'2 3.5
2018-Jul-19 16:30N 40°41' W 074°03'2 4.1
2018-Jul-19 16:00N 40°43' W 074°01'0 0.0
2018-Jul-19 15:30N 40°43' W 074°01'0 0.8
2018-Jul-19 15:00N 40°43' W 074°01'2 1.7
2018-Jul-19 14:00N 40°41' W 074°01'0 0.0
2018-Jul-18 20:43N 40°41' W 074°01'0 0.6
2018-Jul-18 20:30N 40°41' W 074°01'2 3.9
2018-Jul-18 20:00N 40°43' W 074°01'1 2.6
2018-Jul-18 19:30N 40°42' W 074°02'1 2.6
2018-Jul-18 19:00N 40°43' W 074°01'1 2.2
2018-Jul-18 18:30N 40°42' W 074°01'1 2.6
2018-Jul-18 18:00N 40°43' W 074°02'1 1.6
2018-Jul-18 17:30N 40°43' W 074°01'1 1.9
2018-Jul-18 17:00N 40°42' W 074°01'1 2.0
2018-Jul-18 16:30N 40°41' W 074°02'2 3.6
2018-Jul-18 16:00N 40°43' W 074°01'0 0.1
2018-Jul-18 15:30N 40°43' W 074°01'2 4.1
2018-Jul-18 15:00N 40°41' W 074°01'0 0.0
2018-Jul-18 14:30N 40°41' W 074°01'0 0.0
2018-Jul-17 19:49N 40°41' W 074°01'0 0.0
2018-Jul-17 19:30N 40°41' W 074°01'2 4.1
2018-Jul-17 19:00N 40°43' W 074°01'1 2.5
2018-Jul-17 18:30N 40°42' W 074°01'2 3.2
2018-Jul-17 18:00N 40°43' W 074°02'1 1.9
2018-Jul-17 17:30N 40°43' W 074°01'1 2.0
2018-Jul-17 17:00N 40°42' W 074°00'2 3.5
2018-Jul-17 16:30N 40°41' W 074°03'2 4.0
2018-Jul-17 16:00N 40°43' W 074°01'1 2.2
2018-Jul-17 15:30N 40°43' W 074°02'0 0.1
2018-Jul-17 15:00N 40°43' W 074°02'1 1.0
2018-Jul-17 14:30N 40°43' W 074°02'2 4.1
2018-Jul-17 14:00N 40°41' W 074°01'0 0.0
2018-Jul-16 20:56N 40°41' W 074°01'2 4.0
2018-Jul-16 20:31N 40°42' W 074°01'1 1.3
2018-Jul-16 20:00N 40°42' W 074°02'1 1.5
2018-Jul-16 19:30N 40°43' W 074°02'1 2.0
2018-Jul-16 19:01N 40°43' W 074°01'1 2.4
2018-Jul-16 18:31N 40°42' W 074°01'1 2.6
2018-Jul-16 18:01N 40°43' W 074°03'1 2.3
2018-Jul-16 17:31N 40°43' W 074°01'1 1.9
2018-Jul-16 17:00N 40°42' W 074°01'1 2.9
2018-Jul-16 16:30N 40°41' W 074°03'2 4.0
2018-Jul-16 16:00N 40°43' W 074°01'0 0.2
2018-Jul-16 15:31N 40°43' W 074°01'2 3.9
2018-Jul-16 15:00N 40°41' W 074°01'0 0.0
2018-Jul-15 22:51N 40°41' W 074°01'2 6.0
2018-Jul-15 22:31N 40°43' W 074°01'1 2.4
2018-Jul-15 22:00N 40°42' W 074°01'1 2.4
2018-Jul-15 21:30N 40°43' W 074°01'1 2.0
2018-Jul-15 21:00N 40°42' W 074°01'1 2.6
2018-Jul-15 20:30N 40°43' W 074°02'1 1.7
2018-Jul-15 20:00N 40°43' W 074°01'2 4.0
2018-Jul-15 19:30N 40°41' W 074°03'2 3.9
2018-Jul-15 19:00N 40°43' W 074°01'1 2.2
2018-Jul-15 18:29N 40°42' W 073°60'2 3.8
2018-Jul-15 18:00N 40°43' W 074°02'1 1.9
2018-Jul-15 17:29N 40°43' W 074°01'1 2.3
2018-Jul-15 16:59N 40°42' W 073°60'2 4.8
2018-Jul-15 16:29N 40°41' W 074°03'2 4.1
2018-Jul-15 16:00N 40°43' W 074°01'0 0.0
2018-Jul-15 15:30N 40°43' W 074°01'1 2.0
2018-Jul-15 14:56N 40°42' W 074°00'2 4.1
2018-Jul-15 14:29N 40°43' W 074°02'1 2.3
2018-Jul-15 14:00N 40°43' W 074°01'1 2.0
2018-Jul-15 13:30N 40°43' W 074°02'0 0.2
2018-Jul-15 12:59N 40°43' W 074°02'2 0.2
2018-Jul-14 23:49N 40°41' W 074°01'0 0.0
2018-Jul-14 23:31N 40°41' W 074°01'1 1.1
2018-Jul-14 23:00N 40°41' W 074°01'2 3.1
2018-Jul-14 22:31N 40°43' W 074°01'2 4.1
2018-Jul-14 22:00N 40°41' W 074°03'2 4.1
2018-Jul-14 21:30N 40°43' W 074°01'1 1.1
2018-Jul-14 21:01N 40°42' W 074°01'0 0.9
2018-Jul-14 20:31N 40°43' W 074°02'1 1.4
2018-Jul-14 20:00N 40°43' W 074°01'1 2.7
2018-Jul-14 19:30N 40°42' W 074°02'1 2.7
2018-Jul-14 19:00N 40°43' W 074°01'2 3.3
2018-Jul-14 18:30N 40°41' W 074°02'1 2.8
2018-Jul-14 18:00N 40°43' W 074°02'0 0.8
2018-Jul-14 17:30N 40°43' W 074°01'1 2.1
2018-Jul-14 17:00N 40°42' W 074°00'1 2.8
2018-Jul-14 16:30N 40°42' W 074°02'1 2.3
2018-Jul-14 16:00N 40°43' W 074°01'0 0.0
2018-Jul-14 15:30N 40°43' W 074°01'1 2.3
2018-Jul-14 15:00N 40°42' W 074°01'2 3.5
2018-Jul-14 14:30N 40°43' W 074°03'2 0.1
2018-Jul-13 20:40N 40°41' W 074°01'1 5.3
2018-Jul-13 20:30N 40°42' W 074°01'1 2.0
2018-Jul-13 20:00N 40°43' W 074°01'1 2.0
2018-Jul-13 19:30N 40°43' W 074°03'1 2.4
2018-Jul-13 19:00N 40°43' W 074°01'1 2.7
2018-Jul-13 18:30N 40°42' W 074°02'1 2.3
2018-Jul-13 18:01N 40°43' W 074°03'1 2.2
2018-Jul-13 17:31N 40°43' W 074°01'1 2.0
2018-Jul-13 17:00N 40°42' W 074°00'2 3.8
2018-Jul-13 16:31N 40°41' W 074°03'2 4.1
2018-Jul-13 16:00N 40°43' W 074°01'0 0.0
2018-Jul-13 15:30N 40°43' W 074°01'1 2.1
2018-Jul-13 15:00N 40°42' W 074°00'1 1.1
2018-Jul-13 14:00N 40°43' W 074°01'1 2.2
2018-Jul-13 13:30N 40°43' W 074°02'0 0.1
2018-Jul-13 13:00N 40°43' W 074°02'  

Dump ship's entire track history